DTTK

Kairouan Airport

Kairouan, Tunisia
METAR DTTK 241100Z 31002KT CAVOK 30/16 Q1019
Observed Flight Rules
Sep-24 @ 11:00 UTC (38 minutes ago) Visual Flight Rules
Wind Visibility Clouds
310° at 2 knots 10,000+ meters
  • Clear skies
Temperatures Readings
Current 30°C / 86°F
Dewpoint 16°C / 61°F
Humidity 43%
Altimeter 30.09" Hg
Pressure 1019 hPa
Elevation 68
METAR DTTK 241100Z 31002KT CAVOK 30/16 Q1019
Observed Flight Rules
Sep-24 @ 11:00 UTC
(38 minutes ago)
VFR
Wind Visibility
310° at 2 knots 10,000+ meters
Clouds
  • Clear skies
Temperature Dewpoint
30°C / 86°F 16°C / 61°F
Humidity Altimeter Pressure
43% 30.09" Hg 1019 hPa